Meishomaru — JD3044 — position and weather

sailwx.info

Track history (hours):
 
Tides and Currents Weather Stations Pressure Air Temp Water Temp Dewpoint Dewpoint Depression Visibility Wind Speed Wind Dir Waves Ship Positions

Meishomaru

Last reported at 2016-Sep-24 03:29 UTC. Time now 2016-Sep-29 01:37 UTC.
Position N 35°30' E 140°02'.

Length 68 m; draft 4 m.

Type: Tanker. MMSI: 431001216.

Date/timePositionNaut miles runAvg speedWind from/ knotsBaromVisibWave heightAir tempDewpointWater temp
2016-Sep-24 03:29N 35°30' E 140°02'0 0.0
2016-Sep-24 02:29N 35°30' E 140°02'0 0.0
2016-Sep-24 01:26N 35°30' E 140°02'0 0.0
2016-Sep-24 00:32N 35°30' E 140°02'1 0.3
2016-Sep-23 19:30N 35°30' E 140°00'0 0.0
2016-Sep-23 17:18N 35°30' E 140°01'0 0.0
2016-Sep-23 16:30N 35°30' E 140°01'0 0.0
2016-Sep-23 15:30N 35°30' E 140°00'1 0.1
2016-Sep-23 06:33N 35°30' E 139°59'19 9.5
2016-Sep-23 04:33N 35°14' E 139°47'  
2016-Sep-20 17:33N 35°29' E 139°49'0 0.0
2016-Sep-20 14:33N 35°29' E 139°49'0 0.0
2016-Sep-20 13:33N 35°29' E 139°49'0 0.0
2016-Sep-20 10:33N 35°29' E 139°49'0 0.0
2016-Sep-20 08:33N 35°29' E 139°49'0 0.0
2016-Sep-20 07:33N 35°29' E 139°49'0 0.0
2016-Sep-20 06:33N 35°29' E 139°49'3 0.8
2016-Sep-20 02:29N 35°31' E 139°46'1 0.3
2016-Sep-19 23:33N 35°31' E 139°46'2 0.6
2016-Sep-19 19:32N 35°29' E 139°49'0 0.0
2016-Sep-19 18:32N 35°29' E 139°49'0 0.0
2016-Sep-19 16:32N 35°29' E 139°49'0 0.0
2016-Sep-19 14:32N 35°29' E 139°49'0 0.0
2016-Sep-19 13:32N 35°29' E 139°49'0 0.0
2016-Sep-19 12:32N 35°29' E 139°49'0 0.0
2016-Sep-19 11:32N 35°29' E 139°49'0 0.0
2016-Sep-19 09:32N 35°29' E 139°49'0 0.0
2016-Sep-19 07:32N 35°29' E 139°49'0 0.0
2016-Sep-19 06:32N 35°29' E 139°49'0 0.0
2016-Sep-19 03:32N 35°29' E 139°49'0 0.0
2016-Sep-19 02:32N 35°29' E 139°49'0 0.0
2016-Sep-19 00:32N 35°29' E 139°49'0 0.0
2016-Sep-18 19:32N 35°29' E 139°49'0 0.0
2016-Sep-18 15:32N 35°29' E 139°49'0 0.0
2016-Sep-18 14:32N 35°29' E 139°49'0 0.0
2016-Sep-18 10:32N 35°29' E 139°49'4 4.3
2016-Sep-18 09:34N 35°26' E 139°46'41 5.7
2016-Sep-18 02:26N 35°19' E 140°36'1112.2
2016-Sep-18 01:33N 35°28' E 140°43'28 9.0
2016-Sep-17 22:25N 35°56' E 140°42'3 3.7
2016-Sep-17 21:33N 35°53' E 140°41'0 0.0
2016-Sep-17 13:19N 35°53' E 140°41'7 0.3
2016-Sep-16 15:33N 35°59' E 140°44'  
Track history (hours):
 
Tides and Currents Weather Stations Pressure Air Temp Water Temp Dewpoint Dewpoint Depression Visibility Wind Speed Wind Dir Waves Ship Positions

Meishomaru

Last reported at 2016-Sep-24 03:29 UTC. Time now 2016-Sep-29 01:37 UTC.
Position N 35°30' E 140°02'.

Length 68 m; draft 4 m.

Type: Tanker. MMSI: 431001216.

Date/timePositionNaut miles runAvg speedWind from/ knotsBaromVisibWave heightAir tempDewpointWater temp
2016-Sep-24 03:29N 35°30' E 140°02'0 0.0
2016-Sep-24 02:29N 35°30' E 140°02'0 0.0
2016-Sep-24 01:26N 35°30' E 140°02'0 0.0
2016-Sep-24 00:32N 35°30' E 140°02'1 0.3
2016-Sep-23 19:30N 35°30' E 140°00'0 0.0
2016-Sep-23 17:18N 35°30' E 140°01'0 0.0
2016-Sep-23 16:30N 35°30' E 140°01'0 0.0
2016-Sep-23 15:30N 35°30' E 140°00'1 0.1
2016-Sep-23 06:33N 35°30' E 139°59'19 9.5
2016-Sep-23 04:33N 35°14' E 139°47'  
2016-Sep-20 17:33N 35°29' E 139°49'0 0.0
2016-Sep-20 14:33N 35°29' E 139°49'0 0.0
2016-Sep-20 13:33N 35°29' E 139°49'0 0.0
2016-Sep-20 10:33N 35°29' E 139°49'0 0.0
2016-Sep-20 08:33N 35°29' E 139°49'0 0.0
2016-Sep-20 07:33N 35°29' E 139°49'0 0.0
2016-Sep-20 06:33N 35°29' E 139°49'3 0.8
2016-Sep-20 02:29N 35°31' E 139°46'1 0.3
2016-Sep-19 23:33N 35°31' E 139°46'2 0.6
2016-Sep-19 19:32N 35°29' E 139°49'0 0.0
2016-Sep-19 18:32N 35°29' E 139°49'0 0.0
2016-Sep-19 16:32N 35°29' E 139°49'0 0.0
2016-Sep-19 14:32N 35°29' E 139°49'0 0.0
2016-Sep-19 13:32N 35°29' E 139°49'0 0.0
2016-Sep-19 12:32N 35°29' E 139°49'0 0.0
2016-Sep-19 11:32N 35°29' E 139°49'0 0.0
2016-Sep-19 09:32N 35°29' E 139°49'0 0.0
2016-Sep-19 07:32N 35°29' E 139°49'0 0.0
2016-Sep-19 06:32N 35°29' E 139°49'0 0.0
2016-Sep-19 03:32N 35°29' E 139°49'0 0.0
2016-Sep-19 02:32N 35°29' E 139°49'0 0.0
2016-Sep-19 00:32N 35°29' E 139°49'0 0.0
2016-Sep-18 19:32N 35°29' E 139°49'0 0.0
2016-Sep-18 15:32N 35°29' E 139°49'0 0.0
2016-Sep-18 14:32N 35°29' E 139°49'0 0.0
2016-Sep-18 10:32N 35°29' E 139°49'4 4.3
2016-Sep-18 09:34N 35°26' E 139°46'41 5.7
2016-Sep-18 02:26N 35°19' E 140°36'1112.2
2016-Sep-18 01:33N 35°28' E 140°43'28 9.0
2016-Sep-17 22:25N 35°56' E 140°42'3 3.7
2016-Sep-17 21:33N 35°53' E 140°41'0 0.0
2016-Sep-17 13:19N 35°53' E 140°41'7 0.3
2016-Sep-16 15:33N 35°59' E 140°44'  

Dump ship's entire track history